sensor_id;sensor_type;location;lat;lon;timestamp;temperature;humidity
49413;DHT22;35493;50.276;9.372;2023-04-01T00:00:27;10.20;87.20
49413;DHT22;35493;50.276;9.372;2023-04-01T00:03:01;10.20;87.20
49413;DHT22;35493;50.276;9.372;2023-04-01T00:05:34;10.20;87.30
49413;DHT22;35493;50.276;9.372;2023-04-01T00:08:07;10.20;87.40
49413;DHT22;35493;50.276;9.372;2023-04-01T00:10:40;10.20;87.30
49413;DHT22;35493;50.276;9.372;2023-04-01T00:13:14;10.20;87.10
49413;DHT22;35493;50.276;9.372;2023-04-01T00:15:49;10.30;87.00
49413;DHT22;35493;50.276;9.372;2023-04-01T00:18:23;10.20;87.00
49413;DHT22;35493;50.276;9.372;2023-04-01T00:20:57;10.20;87.10
49413;DHT22;35493;50.276;9.372;2023-04-01T00:23:30;10.30;87.10
49413;DHT22;35493;50.276;9.372;2023-04-01T00:26:04;10.20;87.20
49413;DHT22;35493;50.276;9.372;2023-04-01T00:28:39;10.20;87.30
49413;DHT22;35493;50.276;9.372;2023-04-01T00:31:14;10.10;87.20
49413;DHT22;35493;50.276;9.372;2023-04-01T00:33:41;10.10;87.30
49413;DHT22;35493;50.276;9.372;2023-04-01T00:36:16;10.10;87.10
49413;DHT22;35493;50.276;9.372;2023-04-01T00:38:51;10.10;87.20
49413;DHT22;35493;50.276;9.372;2023-04-01T00:41:25;10.10;87.30
49413;DHT22;35493;50.276;9.372;2023-04-01T00:44:15;10.10;87.30
49413;DHT22;35493;50.276;9.372;2023-04-01T00:46:51;10.10;87.20
49413;DHT22;35493;50.276;9.372;2023-04-01T00:49:28;10.20;87.10
49413;DHT22;35493;50.276;9.372;2023-04-01T00:52:04;10.20;87.20
49413;DHT22;35493;50.276;9.372;2023-04-01T00:54:40;10.10;87.10
49413;DHT22;35493;50.276;9.372;2023-04-01T00:57:20;10.10;86.90
49413;DHT22;35493;50.276;9.372;2023-04-01T00:59:55;10.10;86.90
49413;DHT22;35493;50.276;9.372;2023-04-01T01:02:38;10.10;86.90
49413;DHT22;35493;50.276;9.372;2023-04-01T01:05:14;10.10;87.00
49413;DHT22;35493;50.276;9.372;2023-04-01T01:07:54;10.10;86.70
49413;DHT22;35493;50.276;9.372;2023-04-01T01:10:33;10.10;86.70
49413;DHT22;35493;50.276;9.372;2023-04-01T01:13:11;10.10;86.80
49413;DHT22;35493;50.276;9.372;2023-04-01T01:15:53;10.10;86.90
49413;DHT22;35493;50.276;9.372;2023-04-01T01:18:34;10.10;86.60
49413;DHT22;35493;50.276;9.372;2023-04-01T01:21:30;10.10;86.60
49413;DHT22;35493;50.276;9.372;2023-04-01T01:27:10;10.10;86.40
49413;DHT22;35493;50.276;9.372;2023-04-01T01:30:13;10.10;86.10
49413;DHT22;35493;50.276;9.372;2023-04-01T01:32:59;10.10;86.10
49413;DHT22;35493;50.276;9.372;2023-04-01T01:35:38;10.10;86.10
49413;DHT22;35493;50.276;9.372;2023-04-01T01:38:19;10.10;85.90
49413;DHT22;35493;50.276;9.372;2023-04-01T01:41:05;10.10;85.80
49413;DHT22;35493;50.276;9.372;2023-04-01T01:43:43;10.10;85.70
49413;DHT22;35493;50.276;9.372;2023-04-01T01:46:19;10.10;85.70
49413;DHT22;35493;50.276;9.372;2023-04-01T01:48:56;10.10;85.80
49413;DHT22;35493;50.276;9.372;2023-04-01T01:51:31;10.10;85.90
49413;DHT22;35493;50.276;9.372;2023-04-01T01:54:13;10.10;85.80
49413;DHT22;35493;50.276;9.372;2023-04-01T01:56:49;10.10;85.90
49413;DHT22;35493;50.276;9.372;2023-04-01T01:59:24;10.10;86.20
49413;DHT22;35493;50.276;9.372;2023-04-01T02:02:08;10.10;85.90
49413;DHT22;35493;50.276;9.372;2023-04-01T02:04:44;10.00;85.90
49413;DHT22;35493;50.276;9.372;2023-04-01T02:07:23;10.00;86.10
49413;DHT22;35493;50.276;9.372;2023-04-01T02:09:58;10.00;86.20
49413;DHT22;35493;50.276;9.372;2023-04-01T02:12:48;10.00;86.10
49413;DHT22;35493;50.276;9.372;2023-04-01T02:15:24;10.00;86.30
49413;DHT22;35493;50.276;9.372;2023-04-01T02:18:05;10.00;86.30
49413;DHT22;35493;50.276;9.372;2023-04-01T02:20:39;10.00;86.30
49413;DHT22;35493;50.276;9.372;2023-04-01T02:23:13;9.90;86.50
49413;DHT22;35493;50.276;9.372;2023-04-01T02:25:47;9.90;86.40
49413;DHT22;35493;50.276;9.372;2023-04-01T02:28:22;9.90;86.50
49413;DHT22;35493;50.276;9.372;2023-04-01T02:30:57;9.90;86.50
49413;DHT22;35493;50.276;9.372;2023-04-01T02:33:34;9.90;86.50
49413;DHT22;35493;50.276;9.372;2023-04-01T02:36:12;9.90;86.30
49413;DHT22;35493;50.276;9.372;2023-04-01T02:38:48;9.90;86.30
49413;DHT22;35493;50.276;9.372;2023-04-01T02:41:23;9.90;86.30
49413;DHT22;35493;50.276;9.372;2023-04-01T02:43:57;9.90;86.30
49413;DHT22;35493;50.276;9.372;2023-04-01T02:46:31;9.90;86.20
49413;DHT22;35493;50.276;9.372;2023-04-01T02:49:04;9.90;86.20
49413;DHT22;35493;50.276;9.372;2023-04-01T02:51:38;9.80;86.20
49413;DHT22;35493;50.276;9.372;2023-04-01T02:54:13;9.90;86.00
49413;DHT22;35493;50.276;9.372;2023-04-01T02:56:47;9.90;86.10
49413;DHT22;35493;50.276;9.372;2023-04-01T02:59:28;9.90;86.10
49413;DHT22;35493;50.276;9.372;2023-04-01T03:02:01;9.90;86.00
49413;DHT22;35493;50.276;9.372;2023-04-01T03:04:35;9.90;86.20
49413;DHT22;35493;50.276;9.372;2023-04-01T03:07:09;9.90;86.20
49413;DHT22;35493;50.276;9.372;2023-04-01T03:09:44;9.90;86.10
49413;DHT22;35493;50.276;9.372;2023-04-01T03:12:18;9.90;86.00
49413;DHT22;35493;50.276;9.372;2023-04-01T03:14:51;9.90;85.80
49413;DHT22;35493;50.276;9.372;2023-04-01T03:17:25;9.90;85.70
49413;DHT22;35493;50.276;9.372;2023-04-01T03:19:58;9.90;85.70
49413;DHT22;35493;50.276;9.372;2023-04-01T03:22:31;9.80;85.70
49413;DHT22;35493;50.276;9.372;2023-04-01T03:25:06;9.90;85.60
49413;DHT22;35493;50.276;9.372;2023-04-01T03:27:40;9.90;85.80
49413;DHT22;35493;50.276;9.372;2023-04-01T03:30:13;9.80;85.90
49413;DHT22;35493;50.276;9.372;2023-04-01T03:32:50;9.80;85.90
49413;DHT22;35493;50.276;9.372;2023-04-01T03:35:23;9.80;85.70
49413;DHT22;35493;50.276;9.372;2023-04-01T03:37:57;9.90;85.70
49413;DHT22;35493;50.276;9.372;2023-04-01T03:40:26;9.80;85.80
49413;DHT22;35493;50.276;9.372;2023-04-01T03:42:59;9.80;85.90
49413;DHT22;35493;50.276;9.372;2023-04-01T03:45:33;9.80;85.80
49413;DHT22;35493;50.276;9.372;2023-04-01T03:48:00;9.80;85.90
49413;DHT22;35493;50.276;9.372;2023-04-01T03:50:34;9.80;85.90
49413;DHT22;35493;50.276;9.372;2023-04-01T03:53:08;9.90;85.90
49413;DHT22;35493;50.276;9.372;2023-04-01T03:55:46;9.80;85.90
49413;DHT22;35493;50.276;9.372;2023-04-01T03:58:20;9.80;86.00
49413;DHT22;35493;50.276;9.372;2023-04-01T04:01:16;9.80;85.90
49413;DHT22;35493;50.276;9.372;2023-04-01T04:03:53;9.80;86.10
49413;DHT22;35493;50.276;9.372;2023-04-01T04:06:27;9.70;86.30
49413;DHT22;35493;50.276;9.372;2023-04-01T04:09:01;9.70;86.20
49413;DHT22;35493;50.276;9.372;2023-04-01T04:11:35;9.80;86.40
49413;DHT22;35493;50.276;9.372;2023-04-01T04:14:09;9.70;86.50
49413;DHT22;35493;50.276;9.372;2023-04-01T04:16:42;9.70;86.50
49413;DHT22;35493;50.276;9.372;2023-04-01T04:19:16;9.70;86.60
49413;DHT22;35493;50.276;9.372;2023-04-01T04:21:49;9.70;86.60
49413;DHT22;35493;50.276;9.372;2023-04-01T04:24:23;9.70;86.60
49413;DHT22;35493;50.276;9.372;2023-04-01T04:27:07;9.70;86.80
49413;DHT22;35493;50.276;9.372;2023-04-01T04:29:50;9.70;86.70
49413;DHT22;35493;50.276;9.372;2023-04-01T04:32:24;9.70;86.60
49413;DHT22;35493;50.276;9.372;2023-04-01T04:34:58;9.70;86.90
49413;DHT22;35493;50.276;9.372;2023-04-01T04:37:25;9.70;86.80
49413;DHT22;35493;50.276;9.372;2023-04-01T04:39:59;9.70;86.90
49413;DHT22;35493;50.276;9.372;2023-04-01T04:42:33;9.70;87.10
49413;DHT22;35493;50.276;9.372;2023-04-01T04:45:11;9.70;87.20
49413;DHT22;35493;50.276;9.372;2023-04-01T04:47:52;9.70;87.10
49413;DHT22;35493;50.276;9.372;2023-04-01T04:50:27;9.60;87.30
49413;DHT22;35493;50.276;9.372;2023-04-01T04:53:01;9.70;87.10
49413;DHT22;35493;50.276;9.372;2023-04-01T04:55:35;9.60;87.10
49413;DHT22;35493;50.276;9.372;2023-04-01T04:58:36;9.70;87.10
49413;DHT22;35493;50.276;9.372;2023-04-01T05:01:15;9.70;87.20
49413;DHT22;35493;50.276;9.372;2023-04-01T05:03:56;9.70;87.40
49413;DHT22;35493;50.276;9.372;2023-04-01T05:06:29;9.60;87.30
49413;DHT22;35493;50.276;9.372;2023-04-01T05:09:03;9.70;87.00
49413;DHT22;35493;50.276;9.372;2023-04-01T05:11:37;9.70;86.90
49413;DHT22;35493;50.276;9.372;2023-04-01T05:14:14;9.70;86.90
49413;DHT22;35493;50.276;9.372;2023-04-01T05:16:55;9.70;87.00
49413;DHT22;35493;50.276;9.372;2023-04-01T05:19:28;9.70;87.00
49413;DHT22;35493;50.276;9.372;2023-04-01T05:22:02;9.60;86.90
49413;DHT22;35493;50.276;9.372;2023-04-01T05:24:35;9.70;86.80
49413;DHT22;35493;50.276;9.372;2023-04-01T05:27:10;9.70;87.00
49413;DHT22;35493;50.276;9.372;2023-04-01T05:29:45;9.60;87.00
49413;DHT22;35493;50.276;9.372;2023-04-01T05:32:36;9.70;87.00
49413;DHT22;35493;50.276;9.372;2023-04-01T05:35:11;9.70;87.30
49413;DHT22;35493;50.276;9.372;2023-04-01T05:37:44;9.70;87.00
49413;DHT22;35493;50.276;9.372;2023-04-01T05:40:17;9.70;87.00
49413;DHT22;35493;50.276;9.372;2023-04-01T05:42:51;9.70;87.00
49413;DHT22;35493;50.276;9.372;2023-04-01T05:45:25;9.60;87.10
49413;DHT22;35493;50.276;9.372;2023-04-01T05:48:11;9.70;87.10
49413;DHT22;35493;50.276;9.372;2023-04-01T05:50:44;9.70;87.00
49413;DHT22;35493;50.276;9.372;2023-04-01T05:53:19;9.70;86.90
49413;DHT22;35493;50.276;9.372;2023-04-01T05:55:53;9.70;86.90
49413;DHT22;35493;50.276;9.372;2023-04-01T05:58:26;9.70;86.90
49413;DHT22;35493;50.276;9.372;2023-04-01T06:01:10;9.70;86.80
49413;DHT22;35493;50.276;9.372;2023-04-01T06:03:45;9.70;86.90
49413;DHT22;35493;50.276;9.372;2023-04-01T06:06:14;9.70;86.90
49413;DHT22;35493;50.276;9.372;2023-04-01T06:08:48;9.70;86.80
49413;DHT22;35493;50.276;9.372;2023-04-01T06:11:28;9.70;86.70
49413;DHT22;35493;50.276;9.372;2023-04-01T06:14:15;9.70;86.90
49413;DHT22;35493;50.276;9.372;2023-04-01T06:17:00;9.60;86.70
49413;DHT22;35493;50.276;9.372;2023-04-01T06:19:42;9.70;86.80
49413;DHT22;35493;50.276;9.372;2023-04-01T06:22:42;9.70;86.70
49413;DHT22;35493;50.276;9.372;2023-04-01T06:25:42;9.70;86.70
49413;DHT22;35493;50.276;9.372;2023-04-01T06:31:46;9.70;86.80
49413;DHT22;35493;50.276;9.372;2023-04-01T06:34:38;9.70;86.80
49413;DHT22;35493;50.276;9.372;2023-04-01T06:37:28;9.70;86.80
49413;DHT22;35493;50.276;9.372;2023-04-01T06:40:22;9.70;86.90
49413;DHT22;35493;50.276;9.372;2023-04-01T06:43:06;9.70;86.80
49413;DHT22;35493;50.276;9.372;2023-04-01T06:46:05;9.70;86.90
49413;DHT22;35493;50.276;9.372;2023-04-01T06:49:24;9.70;87.00
49413;DHT22;35493;50.276;9.372;2023-04-01T06:52:24;9.70;87.00
49413;DHT22;35493;50.276;9.372;2023-04-01T06:55:38;9.70;87.00
49413;DHT22;35493;50.276;9.372;2023-04-01T06:58:20;9.70;87.00
49413;DHT22;35493;50.276;9.372;2023-04-01T07:00:57;9.70;86.90
49413;DHT22;35493;50.276;9.372;2023-04-01T07:03:41;9.80;86.90
49413;DHT22;35493;50.276;9.372;2023-04-01T07:06:24;9.70;87.00
49413;DHT22;35493;50.276;9.372;2023-04-01T07:09:06;9.80;87.00
49413;DHT22;35493;50.276;9.372;2023-04-01T07:12:30;9.70;87.20
49413;DHT22;35493;50.276;9.372;2023-04-01T07:15:30;9.70;87.10
49413;DHT22;35493;50.276;9.372;2023-04-01T07:18:11;9.70;87.60
49413;DHT22;35493;50.276;9.372;2023-04-01T07:20:46;9.70;87.80
49413;DHT22;35493;50.276;9.372;2023-04-01T07:23:23;9.70;87.60
49413;DHT22;35493;50.276;9.372;2023-04-01T07:26:26;9.70;87.60
49413;DHT22;35493;50.276;9.372;2023-04-01T07:29:22;9.80;87.50
49413;DHT22;35493;50.276;9.372;2023-04-01T07:32:09;9.80;87.50
49413;DHT22;35493;50.276;9.372;2023-04-01T07:35:00;9.80;87.60
49413;DHT22;35493;50.276;9.372;2023-04-01T07:37:42;9.80;87.20
49413;DHT22;35493;50.276;9.372;2023-04-01T07:40:26;9.80;87.40
49413;DHT22;35493;50.276;9.372;2023-04-01T07:43:21;9.90;87.60
49413;DHT22;35493;50.276;9.372;2023-04-01T07:46:19;9.90;87.50
49413;DHT22;35493;50.276;9.372;2023-04-01T07:49:00;9.90;87.40
49413;DHT22;35493;50.276;9.372;2023-04-01T07:51:38;9.90;87.90
49413;DHT22;35493;50.276;9.372;2023-04-01T07:54:22;9.90;88.00
49413;DHT22;35493;50.276;9.372;2023-04-01T07:57:01;9.90;88.20
49413;DHT22;35493;50.276;9.372;2023-04-01T07:59:58;9.90;88.20
49413;DHT22;35493;50.276;9.372;2023-04-01T08:03:19;9.90;87.60
49413;DHT22;35493;50.276;9.372;2023-04-01T08:05:57;10.00;87.90
49413;DHT22;35493;50.276;9.372;2023-04-01T08:08:42;10.00;87.70
49413;DHT22;35493;50.276;9.372;2023-04-01T08:11:48;10.00;88.20
49413;DHT22;35493;50.276;9.372;2023-04-01T08:14:55;10.00;87.70
49413;DHT22;35493;50.276;9.372;2023-04-01T08:17:41;10.00;87.80
49413;DHT22;35493;50.276;9.372;2023-04-01T08:20:28;10.00;88.20
49413;DHT22;35493;50.276;9.372;2023-04-01T08:23:12;10.00;88.40
49413;DHT22;35493;50.276;9.372;2023-04-01T08:25:50;10.00;88.40
49413;DHT22;35493;50.276;9.372;2023-04-01T08:28:30;10.00;88.50
49413;DHT22;35493;50.276;9.372;2023-04-01T08:31:12;10.00;88.50
49413;DHT22;35493;50.276;9.372;2023-04-01T08:33:47;10.00;88.40
49413;DHT22;35493;50.276;9.372;2023-04-01T08:36:24;10.00;88.30
49413;DHT22;35493;50.276;9.372;2023-04-01T08:39:22;10.00;88.40
49413;DHT22;35493;50.276;9.372;2023-04-01T08:42:17;10.10;88.10
49413;DHT22;35493;50.276;9.372;2023-04-01T08:48:50;10.20;88.10
49413;DHT22;35493;50.276;9.372;2023-04-01T08:52:01;10.20;88.10
49413;DHT22;35493;50.276;9.372;2023-04-01T08:54:55;10.30;87.80
49413;DHT22;35493;50.276;9.372;2023-04-01T08:58:01;10.30;87.90
49413;DHT22;35493;50.276;9.372;2023-04-01T09:00:49;10.30;87.80
49413;DHT22;35493;50.276;9.372;2023-04-01T09:07:08;10.30;88.20
49413;DHT22;35493;50.276;9.372;2023-04-01T09:10:06;10.30;88.30
49413;DHT22;35493;50.276;9.372;2023-04-01T09:12:49;10.30;88.20
49413;DHT22;35493;50.276;9.372;2023-04-01T09:18:59;10.30;88.60
49413;DHT22;35493;50.276;9.372;2023-04-01T09:24:58;10.40;88.30
49413;DHT22;35493;50.276;9.372;2023-04-01T09:27:44;10.40;88.20
49413;DHT22;35493;50.276;9.372;2023-04-01T09:34:00;10.50;88.70
49413;DHT22;35493;50.276;9.372;2023-04-01T09:37:09;10.50;88.40
49413;DHT22;35493;50.276;9.372;2023-04-01T09:40:17;10.60;88.50
49413;DHT22;35493;50.276;9.372;2023-04-01T09:43:07;10.60;88.40
49413;DHT22;35493;50.276;9.372;2023-04-01T09:45:52;10.60;88.50
49413;DHT22;35493;50.276;9.372;2023-04-01T09:48:43;10.60;88.80
49413;DHT22;35493;50.276;9.372;2023-04-01T09:51:30;10.60;88.70
49413;DHT22;35493;50.276;9.372;2023-04-01T09:54:24;10.60;88.50
49413;DHT22;35493;50.276;9.372;2023-04-01T09:57:28;10.60;88.60
49413;DHT22;35493;50.276;9.372;2023-04-01T10:00:45;10.60;88.70
49413;DHT22;35493;50.276;9.372;2023-04-01T10:04:16;10.60;88.90
49413;DHT22;35493;50.276;9.372;2023-04-01T10:07:47;10.60;89.20
49413;DHT22;35493;50.276;9.372;2023-04-01T10:10:43;10.70;88.90
49413;DHT22;35493;50.276;9.372;2023-04-01T10:13:58;10.70;88.70
49413;DHT22;35493;50.276;9.372;2023-04-01T10:16:54;10.70;88.50
49413;DHT22;35493;50.276;9.372;2023-04-01T10:22:56;10.80;88.80
49413;DHT22;35493;50.276;9.372;2023-04-01T10:25:54;10.80;88.90
49413;DHT22;35493;50.276;9.372;2023-04-01T10:28:59;10.80;89.20
49413;DHT22;35493;50.276;9.372;2023-04-01T10:32:02;10.90;88.70
49413;DHT22;35493;50.276;9.372;2023-04-01T10:38:29;10.90;88.70
49413;DHT22;35493;50.276;9.372;2023-04-01T10:48:02;11.10;88.90
49413;DHT22;35493;50.276;9.372;2023-04-01T10:51:04;11.10;88.90
49413;DHT22;35493;50.276;9.372;2023-04-01T10:53:55;11.20;88.90
49413;DHT22;35493;50.276;9.372;2023-04-01T10:56:54;11.20;88.60
49413;DHT22;35493;50.276;9.372;2023-04-01T11:00:23;11.20;88.50
49413;DHT22;35493;50.276;9.372;2023-04-01T11:10:26;11.10;88.70
49413;DHT22;35493;50.276;9.372;2023-04-01T11:16:36;11.10;89.20
49413;DHT22;35493;50.276;9.372;2023-04-01T11:19:46;11.20;89.10
49413;DHT22;35493;50.276;9.372;2023-04-01T11:22:41;11.20;89.00
49413;DHT22;35493;50.276;9.372;2023-04-01T11:26:01;11.20;88.80
49413;DHT22;35493;50.276;9.372;2023-04-01T11:29:36;11.10;89.10
49413;DHT22;35493;50.276;9.372;2023-04-01T11:32:34;11.10;89.20
49413;DHT22;35493;50.276;9.372;2023-04-01T11:38:24;11.00;89.40
49413;DHT22;35493;50.276;9.372;2023-04-01T11:41:26;11.00;89.10
49413;DHT22;35493;50.276;9.372;2023-04-01T11:44:24;11.10;89.50
49413;DHT22;35493;50.276;9.372;2023-04-01T11:47:19;11.10;89.20
49413;DHT22;35493;50.276;9.372;2023-04-01T11:50:25;11.10;88.90
49413;DHT22;35493;50.276;9.372;2023-04-01T11:53:22;11.20;88.90
49413;DHT22;35493;50.276;9.372;2023-04-01T11:56:22;11.20;88.70
49413;DHT22;35493;50.276;9.372;2023-04-01T12:02:28;11.10;89.10
49413;DHT22;35493;50.276;9.372;2023-04-01T12:05:32;11.10;89.50
49413;DHT22;35493;50.276;9.372;2023-04-01T12:08:19;11.10;89.50
49413;DHT22;35493;50.276;9.372;2023-04-01T12:10:59;11.00;89.70
49413;DHT22;35493;50.276;9.372;2023-04-01T12:13:41;11.00;89.30
49413;DHT22;35493;50.276;9.372;2023-04-01T12:16:36;11.00;89.50
49413;DHT22;35493;50.276;9.372;2023-04-01T12:19:19;11.00;89.30
49413;DHT22;35493;50.276;9.372;2023-04-01T12:22:12;11.00;89.40
49413;DHT22;35493;50.276;9.372;2023-04-01T12:24:47;11.00;89.60
49413;DHT22;35493;50.276;9.372;2023-04-01T12:27:50;11.00;89.40
49413;DHT22;35493;50.276;9.372;2023-04-01T12:30:42;11.00;89.70
49413;DHT22;35493;50.276;9.372;2023-04-01T12:33:45;11.00;89.50
49413;DHT22;35493;50.276;9.372;2023-04-01T12:36:41;11.10;89.00
49413;DHT22;35493;50.276;9.372;2023-04-01T12:39:44;11.10;89.00
49413;DHT22;35493;50.276;9.372;2023-04-01T12:42:44;11.10;88.80
49413;DHT22;35493;50.276;9.372;2023-04-01T12:45:28;11.30;88.80
49413;DHT22;35493;50.276;9.372;2023-04-01T12:48:34;11.30;88.90
49413;DHT22;35493;50.276;9.372;2023-04-01T13:00:30;11.30;88.90
49413;DHT22;35493;50.276;9.372;2023-04-01T13:03:21;11.20;89.40
49413;DHT22;35493;50.276;9.372;2023-04-01T13:06:27;11.20;89.40
49413;DHT22;35493;50.276;9.372;2023-04-01T13:09:12;11.20;89.80
49413;DHT22;35493;50.276;9.372;2023-04-01T13:12:09;11.10;89.60
49413;DHT22;35493;50.276;9.372;2023-04-01T13:15:05;11.10;89.50
49413;DHT22;35493;50.276;9.372;2023-04-01T13:17:46;11.10;89.50
49413;DHT22;35493;50.276;9.372;2023-04-01T13:20:30;11.20;89.40
49413;DHT22;35493;50.276;9.372;2023-04-01T13:23:19;11.10;89.90
49413;DHT22;35493;50.276;9.372;2023-04-01T13:26:03;11.10;89.70
49413;DHT22;35493;50.276;9.372;2023-04-01T13:28:42;11.10;89.90
49413;DHT22;35493;50.276;9.372;2023-04-01T13:31:29;11.10;90.10
49413;DHT22;35493;50.276;9.372;2023-04-01T13:34:21;11.20;89.80
49413;DHT22;35493;50.276;9.372;2023-04-01T13:37:10;11.30;89.70
49413;DHT22;35493;50.276;9.372;2023-04-01T13:40:01;11.40;89.20
49413;DHT22;35493;50.276;9.372;2023-04-01T13:42:40;11.50;89.50
49413;DHT22;35493;50.276;9.372;2023-04-01T13:45:18;11.50;89.20
49413;DHT22;35493;50.276;9.372;2023-04-01T13:54:42;11.60;89.10
49413;DHT22;35493;50.276;9.372;2023-04-01T13:57:33;11.60;89.60
49413;DHT22;35493;50.276;9.372;2023-04-01T14:00:27;11.50;89.30
49413;DHT22;35493;50.276;9.372;2023-04-01T14:03:32;11.50;89.40
49413;DHT22;35493;50.276;9.372;2023-04-01T14:06:19;11.50;89.40
49413;DHT22;35493;50.276;9.372;2023-04-01T14:09:18;11.50;89.10
49413;DHT22;35493;50.276;9.372;2023-04-01T14:12:02;11.50;89.50
49413;DHT22;35493;50.276;9.372;2023-04-01T14:14:50;11.40;89.30
49413;DHT22;35493;50.276;9.372;2023-04-01T14:17:48;11.40;89.60
49413;DHT22;35493;50.276;9.372;2023-04-01T14:20:35;11.40;89.30
49413;DHT22;35493;50.276;9.372;2023-04-01T14:26:30;11.30;89.80
49413;DHT22;35493;50.276;9.372;2023-04-01T14:29:20;11.30;89.80
49413;DHT22;35493;50.276;9.372;2023-04-01T14:32:05;11.30;90.20
49413;DHT22;35493;50.276;9.372;2023-04-01T14:34:55;11.40;89.90
49413;DHT22;35493;50.276;9.372;2023-04-01T14:37:55;11.50;89.50
49413;DHT22;35493;50.276;9.372;2023-04-01T14:40:44;11.60;89.50
49413;DHT22;35493;50.276;9.372;2023-04-01T14:43:48;11.60;89.70
49413;DHT22;35493;50.276;9.372;2023-04-01T14:46:56;11.60;89.70
49413;DHT22;35493;50.276;9.372;2023-04-01T14:49:41;11.70;89.60
49413;DHT22;35493;50.276;9.372;2023-04-01T14:52:21;11.60;89.60
49413;DHT22;35493;50.276;9.372;2023-04-01T14:54:56;11.70;89.70
49413;DHT22;35493;50.276;9.372;2023-04-01T14:57:31;11.70;89.90
49413;DHT22;35493;50.276;9.372;2023-04-01T15:00:14;11.70;89.80
49413;DHT22;35493;50.276;9.372;2023-04-01T15:02:56;11.70;89.50
49413;DHT22;35493;50.276;9.372;2023-04-01T15:05:45;11.70;89.50
49413;DHT22;35493;50.276;9.372;2023-04-01T15:08:43;11.70;89.50
49413;DHT22;35493;50.276;9.372;2023-04-01T15:11:47;11.70;89.50
49413;DHT22;35493;50.276;9.372;2023-04-01T15:14:35;11.70;89.80
49413;DHT22;35493;50.276;9.372;2023-04-01T15:17:41;11.60;89.60
49413;DHT22;35493;50.276;9.372;2023-04-01T15:20:25;11.50;89.60
49413;DHT22;35493;50.276;9.372;2023-04-01T15:23:13;11.50;90.00
49413;DHT22;35493;50.276;9.372;2023-04-01T15:29:06;11.40;90.10
49413;DHT22;35493;50.276;9.372;2023-04-01T15:31:46;11.30;90.10
49413;DHT22;35493;50.276;9.372;2023-04-01T15:34:28;11.30;90.20
49413;DHT22;35493;50.276;9.372;2023-04-01T15:37:13;11.20;90.30
49413;DHT22;35493;50.276;9.372;2023-04-01T15:39:56;11.20;90.20
49413;DHT22;35493;50.276;9.372;2023-04-01T15:42:46;11.20;90.20
49413;DHT22;35493;50.276;9.372;2023-04-01T15:45:32;11.30;90.30
49413;DHT22;35493;50.276;9.372;2023-04-01T15:48:27;11.30;90.30
49413;DHT22;35493;50.276;9.372;2023-04-01T15:51:22;11.30;90.40
49413;DHT22;35493;50.276;9.372;2023-04-01T15:54:25;11.40;90.30
49413;DHT22;35493;50.276;9.372;2023-04-01T15:57:18;11.30;90.20
49413;DHT22;35493;50.276;9.372;2023-04-01T16:00:06;11.40;89.90
49413;DHT22;35493;50.276;9.372;2023-04-01T16:02:53;11.40;89.90
49413;DHT22;35493;50.276;9.372;2023-04-01T16:05:41;11.30;90.20
49413;DHT22;35493;50.276;9.372;2023-04-01T16:08:39;11.20;90.40
49413;DHT22;35493;50.276;9.372;2023-04-01T16:11:22;11.20;90.50
49413;DHT22;35493;50.276;9.372;2023-04-01T16:14:09;11.20;90.50
49413;DHT22;35493;50.276;9.372;2023-04-01T16:16:53;11.20;90.30
49413;DHT22;35493;50.276;9.372;2023-04-01T16:19:41;11.20;90.20
49413;DHT22;35493;50.276;9.372;2023-04-01T16:22:23;11.30;90.10
49413;DHT22;35493;50.276;9.372;2023-04-01T16:25:17;11.40;90.00
49413;DHT22;35493;50.276;9.372;2023-04-01T16:28:03;11.40;89.60
49413;DHT22;35493;50.276;9.372;2023-04-01T16:30:44;11.40;89.60
49413;DHT22;35493;50.276;9.372;2023-04-01T16:33:22;11.40;89.60
49413;DHT22;35493;50.276;9.372;2023-04-01T16:35:59;11.40;89.80
49413;DHT22;35493;50.276;9.372;2023-04-01T16:38:37;11.40;89.70
49413;DHT22;35493;50.276;9.372;2023-04-01T16:41:17;11.40;89.60
49413;DHT22;35493;50.276;9.372;2023-04-01T16:43:54;11.40;89.70
49413;DHT22;35493;50.276;9.372;2023-04-01T16:46:36;11.40;89.80
49413;DHT22;35493;50.276;9.372;2023-04-01T16:49:24;11.30;89.70
49413;DHT22;35493;50.276;9.372;2023-04-01T16:52:12;11.30;89.70
49413;DHT22;35493;50.276;9.372;2023-04-01T16:54:51;11.30;89.70
49413;DHT22;35493;50.276;9.372;2023-04-01T16:57:30;11.30;89.70
49413;DHT22;35493;50.276;9.372;2023-04-01T17:00:16;11.30;89.60
49413;DHT22;35493;50.276;9.372;2023-04-01T17:03:02;11.20;89.80
49413;DHT22;35493;50.276;9.372;2023-04-01T17:05:58;11.10;90.00
49413;DHT22;35493;50.276;9.372;2023-04-01T17:08:47;11.20;90.00
49413;DHT22;35493;50.276;9.372;2023-04-01T17:11:26;11.20;90.00
49413;DHT22;35493;50.276;9.372;2023-04-01T17:14:11;11.20;89.90
49413;DHT22;35493;50.276;9.372;2023-04-01T17:16:56;11.20;89.60
49413;DHT22;35493;50.276;9.372;2023-04-01T17:19:46;11.20;89.20
49413;DHT22;35493;50.276;9.372;2023-04-01T17:22:27;11.10;89.00
49413;DHT22;35493;50.276;9.372;2023-04-01T17:25:16;11.00;89.00
49413;DHT22;35493;50.276;9.372;2023-04-01T17:27:59;11.00;88.90
49413;DHT22;35493;50.276;9.372;2023-04-01T17:30:35;10.90;89.00
49413;DHT22;35493;50.276;9.372;2023-04-01T17:33:33;10.90;88.70
49413;DHT22;35493;50.276;9.372;2023-04-01T17:36:20;10.90;88.70
49413;DHT22;35493;50.276;9.372;2023-04-01T17:39:24;10.70;88.90
49413;DHT22;35493;50.276;9.372;2023-04-01T17:42:06;10.70;88.90
49413;DHT22;35493;50.276;9.372;2023-04-01T17:44:49;10.70;88.50
49413;DHT22;35493;50.276;9.372;2023-04-01T17:47:41;10.60;88.30
49413;DHT22;35493;50.276;9.372;2023-04-01T17:50:22;10.60;88.40
49413;DHT22;35493;50.276;9.372;2023-04-01T17:53:08;10.60;87.90
49413;DHT22;35493;50.276;9.372;2023-04-01T17:55:59;10.50;87.90
49413;DHT22;35493;50.276;9.372;2023-04-01T17:58:42;10.30;88.20
49413;DHT22;35493;50.276;9.372;2023-04-01T18:01:24;10.20;88.60
49413;DHT22;35493;50.276;9.372;2023-04-01T18:04:18;10.20;88.80
49413;DHT22;35493;50.276;9.372;2023-04-01T18:07:09;10.30;88.70
49413;DHT22;35493;50.276;9.372;2023-04-01T18:09:53;10.30;88.90
49413;DHT22;35493;50.276;9.372;2023-04-01T18:12:33;10.20;89.00
49413;DHT22;35493;50.276;9.372;2023-04-01T18:15:19;10.30;88.80
49413;DHT22;35493;50.276;9.372;2023-04-01T18:18:04;10.30;88.80
49413;DHT22;35493;50.276;9.372;2023-04-01T18:20:46;10.20;88.80
49413;DHT22;35493;50.276;9.372;2023-04-01T18:23:30;10.20;88.80
49413;DHT22;35493;50.276;9.372;2023-04-01T18:26:12;10.20;88.90
49413;DHT22;35493;50.276;9.372;2023-04-01T18:28:51;10.20;88.80
49413;DHT22;35493;50.276;9.372;2023-04-01T18:31:31;10.10;89.00
49413;DHT22;35493;50.276;9.372;2023-04-01T18:34:10;10.10;89.00
49413;DHT22;35493;50.276;9.372;2023-04-01T18:36:50;10.20;88.80
49413;DHT22;35493;50.276;9.372;2023-04-01T18:39:33;10.10;89.00
49413;DHT22;35493;50.276;9.372;2023-04-01T18:42:16;10.10;89.20
49413;DHT22;35493;50.276;9.372;2023-04-01T18:44:55;10.00;89.20